sensor_id;sensor_type;location;lat;lon;timestamp;P1;durP1;ratioP1;P2;durP2;ratioP2
2838;SDS011;1427;48.510;9.060;2023-06-26T00:00:06;51.63;;;4.10;;
2838;SDS011;1427;48.510;9.060;2023-06-26T00:02:35;51.20;;;4.13;;
2838;SDS011;1427;48.510;9.060;2023-06-26T00:05:05;51.90;;;4.10;;
2838;SDS011;1427;48.510;9.060;2023-06-26T00:07:33;55.43;;;3.80;;
2838;SDS011;1427;48.510;9.060;2023-06-26T00:10:02;50.13;;;3.80;;
2838;SDS011;1427;48.510;9.060;2023-06-26T00:12:31;52.50;;;3.90;;
2838;SDS011;1427;48.510;9.060;2023-06-26T00:15:00;52.77;;;4.57;;
2838;SDS011;1427;48.510;9.060;2023-06-26T00:17:28;54.23;;;4.90;;
2838;SDS011;1427;48.510;9.060;2023-06-26T00:19:56;52.20;;;4.07;;
2838;SDS011;1427;48.510;9.060;2023-06-26T00:22:25;51.83;;;3.97;;
2838;SDS011;1427;48.510;9.060;2023-06-26T00:24:54;54.27;;;4.97;;
2838;SDS011;1427;48.510;9.060;2023-06-26T00:27:22;53.40;;;4.17;;
2838;SDS011;1427;48.510;9.060;2023-06-26T00:29:50;52.77;;;3.77;;
2838;SDS011;1427;48.510;9.060;2023-06-26T00:32:19;50.60;;;4.17;;
2838;SDS011;1427;48.510;9.060;2023-06-26T00:34:47;51.60;;;4.50;;
2838;SDS011;1427;48.510;9.060;2023-06-26T00:37:15;50.67;;;3.90;;
2838;SDS011;1427;48.510;9.060;2023-06-26T00:39:45;52.43;;;4.33;;
2838;SDS011;1427;48.510;9.060;2023-06-26T00:42:13;50.97;;;3.90;;
2838;SDS011;1427;48.510;9.060;2023-06-26T00:44:41;50.47;;;3.37;;
2838;SDS011;1427;48.510;9.060;2023-06-26T00:47:09;49.30;;;3.40;;
2838;SDS011;1427;48.510;9.060;2023-06-26T00:49:40;53.00;;;4.10;;
2838;SDS011;1427;48.510;9.060;2023-06-26T00:52:08;52.27;;;3.90;;
2838;SDS011;1427;48.510;9.060;2023-06-26T00:54:36;51.37;;;4.43;;
2838;SDS011;1427;48.510;9.060;2023-06-26T00:57:06;52.33;;;3.30;;
2838;SDS011;1427;48.510;9.060;2023-06-26T00:59:34;49.80;;;3.90;;
2838;SDS011;1427;48.510;9.060;2023-06-26T01:02:02;55.60;;;3.67;;
2838;SDS011;1427;48.510;9.060;2023-06-26T01:04:31;52.37;;;3.93;;
2838;SDS011;1427;48.510;9.060;2023-06-26T01:06:59;51.00;;;3.83;;
2838;SDS011;1427;48.510;9.060;2023-06-26T01:09:30;52.47;;;3.90;;
2838;SDS011;1427;48.510;9.060;2023-06-26T01:11:58;52.87;;;4.17;;
2838;SDS011;1427;48.510;9.060;2023-06-26T01:14:28;52.90;;;4.00;;
2838;SDS011;1427;48.510;9.060;2023-06-26T01:16:59;52.83;;;4.80;;
2838;SDS011;1427;48.510;9.060;2023-06-26T01:19:29;49.53;;;4.20;;
2838;SDS011;1427;48.510;9.060;2023-06-26T01:22:01;49.33;;;4.17;;
2838;SDS011;1427;48.510;9.060;2023-06-26T01:24:42;51.73;;;3.93;;
2838;SDS011;1427;48.510;9.060;2023-06-26T01:27:20;49.40;;;3.53;;
2838;SDS011;1427;48.510;9.060;2023-06-26T01:29:50;50.20;;;3.80;;
2838;SDS011;1427;48.510;9.060;2023-06-26T01:32:19;53.13;;;4.47;;
2838;SDS011;1427;48.510;9.060;2023-06-26T01:34:48;49.70;;;3.90;;
2838;SDS011;1427;48.510;9.060;2023-06-26T01:37:17;52.70;;;3.57;;
2838;SDS011;1427;48.510;9.060;2023-06-26T01:39:45;53.47;;;3.83;;
2838;SDS011;1427;48.510;9.060;2023-06-26T01:42:13;51.60;;;3.97;;
2838;SDS011;1427;48.510;9.060;2023-06-26T01:44:43;50.87;;;3.80;;
2838;SDS011;1427;48.510;9.060;2023-06-26T01:47:14;48.93;;;2.93;;
2838;SDS011;1427;48.510;9.060;2023-06-26T01:49:47;55.00;;;4.20;;
2838;SDS011;1427;48.510;9.060;2023-06-26T01:52:19;49.13;;;3.30;;
2838;SDS011;1427;48.510;9.060;2023-06-26T01:54:53;50.53;;;4.20;;
2838;SDS011;1427;48.510;9.060;2023-06-26T01:57:24;52.27;;;4.77;;
2838;SDS011;1427;48.510;9.060;2023-06-26T01:59:56;50.80;;;4.50;;
2838;SDS011;1427;48.510;9.060;2023-06-26T02:02:27;49.10;;;3.37;;
2838;SDS011;1427;48.510;9.060;2023-06-26T02:04:56;55.23;;;3.87;;
2838;SDS011;1427;48.510;9.060;2023-06-26T02:07:24;53.17;;;3.67;;
2838;SDS011;1427;48.510;9.060;2023-06-26T02:09:52;54.47;;;4.27;;
2838;SDS011;1427;48.510;9.060;2023-06-26T02:12:21;54.17;;;4.43;;
2838;SDS011;1427;48.510;9.060;2023-06-26T02:14:49;51.00;;;3.67;;
2838;SDS011;1427;48.510;9.060;2023-06-26T02:17:19;55.03;;;4.33;;
2838;SDS011;1427;48.510;9.060;2023-06-26T02:19:47;52.07;;;3.87;;
2838;SDS011;1427;48.510;9.060;2023-06-26T02:22:15;57.27;;;4.03;;
2838;SDS011;1427;48.510;9.060;2023-06-26T02:24:43;51.03;;;4.10;;
2838;SDS011;1427;48.510;9.060;2023-06-26T02:27:12;51.80;;;4.00;;
2838;SDS011;1427;48.510;9.060;2023-06-26T02:29:40;52.37;;;4.47;;
2838;SDS011;1427;48.510;9.060;2023-06-26T02:32:08;50.40;;;4.20;;
2838;SDS011;1427;48.510;9.060;2023-06-26T02:34:38;54.83;;;4.27;;
2838;SDS011;1427;48.510;9.060;2023-06-26T02:37:06;51.40;;;3.97;;
2838;SDS011;1427;48.510;9.060;2023-06-26T02:39:34;49.77;;;3.97;;
2838;SDS011;1427;48.510;9.060;2023-06-26T02:42:02;50.27;;;3.60;;
2838;SDS011;1427;48.510;9.060;2023-06-26T02:44:31;51.50;;;4.03;;
2838;SDS011;1427;48.510;9.060;2023-06-26T02:46:59;52.10;;;3.93;;
2838;SDS011;1427;48.510;9.060;2023-06-26T02:49:27;50.77;;;3.40;;
2838;SDS011;1427;48.510;9.060;2023-06-26T02:51:57;52.73;;;3.70;;
2838;SDS011;1427;48.510;9.060;2023-06-26T02:54:25;56.30;;;4.20;;
2838;SDS011;1427;48.510;9.060;2023-06-26T02:56:53;53.80;;;4.30;;
2838;SDS011;1427;48.510;9.060;2023-06-26T02:59:21;53.33;;;4.10;;
2838;SDS011;1427;48.510;9.060;2023-06-26T03:01:49;51.03;;;4.20;;
2838;SDS011;1427;48.510;9.060;2023-06-26T03:04:17;52.90;;;4.60;;
2838;SDS011;1427;48.510;9.060;2023-06-26T03:06:48;55.53;;;3.80;;
2838;SDS011;1427;48.510;9.060;2023-06-26T03:09:17;53.03;;;4.70;;
2838;SDS011;1427;48.510;9.060;2023-06-26T03:11:45;51.90;;;4.47;;
2838;SDS011;1427;48.510;9.060;2023-06-26T03:14:13;50.70;;;4.60;;
2838;SDS011;1427;48.510;9.060;2023-06-26T03:16:41;49.97;;;3.93;;
2838;SDS011;1427;48.510;9.060;2023-06-26T03:19:10;50.03;;;3.47;;
2838;SDS011;1427;48.510;9.060;2023-06-26T03:21:38;51.20;;;3.50;;
2838;SDS011;1427;48.510;9.060;2023-06-26T03:24:06;52.37;;;4.40;;
2838;SDS011;1427;48.510;9.060;2023-06-26T03:26:38;51.73;;;3.90;;
2838;SDS011;1427;48.510;9.060;2023-06-26T03:29:06;53.07;;;4.20;;
2838;SDS011;1427;48.510;9.060;2023-06-26T03:31:36;50.87;;;3.57;;
2838;SDS011;1427;48.510;9.060;2023-06-26T03:34:04;53.63;;;5.70;;
2838;SDS011;1427;48.510;9.060;2023-06-26T03:36:32;52.30;;;8.43;;
2838;SDS011;1427;48.510;9.060;2023-06-26T03:39:02;52.77;;;8.23;;
2838;SDS011;1427;48.510;9.060;2023-06-26T03:41:30;54.87;;;8.17;;
2838;SDS011;1427;48.510;9.060;2023-06-26T03:43:59;53.10;;;6.50;;
2838;SDS011;1427;48.510;9.060;2023-06-26T03:46:28;55.63;;;7.47;;
2838;SDS011;1427;48.510;9.060;2023-06-26T03:48:56;49.50;;;6.03;;
2838;SDS011;1427;48.510;9.060;2023-06-26T03:51:24;56.07;;;8.50;;
2838;SDS011;1427;48.510;9.060;2023-06-26T03:53:52;52.20;;;6.83;;
2838;SDS011;1427;48.510;9.060;2023-06-26T03:56:20;52.57;;;7.10;;
2838;SDS011;1427;48.510;9.060;2023-06-26T03:58:48;51.97;;;6.77;;
2838;SDS011;1427;48.510;9.060;2023-06-26T04:01:18;52.70;;;6.90;;
2838;SDS011;1427;48.510;9.060;2023-06-26T04:03:48;53.80;;;7.60;;
2838;SDS011;1427;48.510;9.060;2023-06-26T04:06:16;54.10;;;7.87;;
2838;SDS011;1427;48.510;9.060;2023-06-26T04:08:44;53.77;;;7.03;;
2838;SDS011;1427;48.510;9.060;2023-06-26T04:11:12;54.90;;;8.37;;
2838;SDS011;1427;48.510;9.060;2023-06-26T04:13:41;54.10;;;8.93;;
2838;SDS011;1427;48.510;9.060;2023-06-26T04:16:09;58.13;;;10.40;;
2838;SDS011;1427;48.510;9.060;2023-06-26T04:18:39;54.60;;;7.03;;
2838;SDS011;1427;48.510;9.060;2023-06-26T04:21:08;53.73;;;8.50;;
2838;SDS011;1427;48.510;9.060;2023-06-26T04:23:38;56.13;;;7.73;;
2838;SDS011;1427;48.510;9.060;2023-06-26T04:26:07;50.97;;;6.97;;
2838;SDS011;1427;48.510;9.060;2023-06-26T04:28:41;50.50;;;6.50;;
2838;SDS011;1427;48.510;9.060;2023-06-26T04:31:09;53.07;;;8.20;;
2838;SDS011;1427;48.510;9.060;2023-06-26T04:33:39;56.67;;;8.03;;
2838;SDS011;1427;48.510;9.060;2023-06-26T04:36:08;53.47;;;7.27;;
2838;SDS011;1427;48.510;9.060;2023-06-26T04:38:37;57.30;;;7.73;;
2838;SDS011;1427;48.510;9.060;2023-06-26T04:41:05;52.27;;;7.40;;
2838;SDS011;1427;48.510;9.060;2023-06-26T04:43:33;52.10;;;7.97;;
2838;SDS011;1427;48.510;9.060;2023-06-26T04:46:02;52.80;;;7.60;;
2838;SDS011;1427;48.510;9.060;2023-06-26T04:48:30;54.43;;;8.70;;
2838;SDS011;1427;48.510;9.060;2023-06-26T04:50:59;54.27;;;8.03;;
2838;SDS011;1427;48.510;9.060;2023-06-26T04:53:27;52.70;;;7.33;;
2838;SDS011;1427;48.510;9.060;2023-06-26T04:55:55;54.10;;;8.10;;
2838;SDS011;1427;48.510;9.060;2023-06-26T04:58:24;60.17;;;9.93;;
2838;SDS011;1427;48.510;9.060;2023-06-26T05:00:52;55.07;;;8.47;;
2838;SDS011;1427;48.510;9.060;2023-06-26T05:03:20;53.60;;;8.20;;
2838;SDS011;1427;48.510;9.060;2023-06-26T05:05:49;54.23;;;8.07;;
2838;SDS011;1427;48.510;9.060;2023-06-26T05:08:22;54.40;;;8.20;;
2838;SDS011;1427;48.510;9.060;2023-06-26T05:10:52;54.03;;;8.27;;
2838;SDS011;1427;48.510;9.060;2023-06-26T05:13:24;64.23;;;8.00;;
2838;SDS011;1427;48.510;9.060;2023-06-26T05:15:52;56.20;;;8.33;;
2838;SDS011;1427;48.510;9.060;2023-06-26T05:18:20;53.33;;;8.03;;
2838;SDS011;1427;48.510;9.060;2023-06-26T05:20:49;57.07;;;9.13;;
2838;SDS011;1427;48.510;9.060;2023-06-26T05:23:17;55.57;;;8.77;;
2838;SDS011;1427;48.510;9.060;2023-06-26T05:25:49;54.23;;;7.87;;
2838;SDS011;1427;48.510;9.060;2023-06-26T05:28:18;57.13;;;8.57;;
2838;SDS011;1427;48.510;9.060;2023-06-26T05:30:46;57.50;;;8.10;;
2838;SDS011;1427;48.510;9.060;2023-06-26T05:33:15;56.83;;;10.27;;
2838;SDS011;1427;48.510;9.060;2023-06-26T05:35:46;55.17;;;8.43;;
2838;SDS011;1427;48.510;9.060;2023-06-26T05:38:15;59.73;;;8.70;;
2838;SDS011;1427;48.510;9.060;2023-06-26T05:40:44;53.40;;;7.93;;
2838;SDS011;1427;48.510;9.060;2023-06-26T05:43:14;53.20;;;7.23;;
2838;SDS011;1427;48.510;9.060;2023-06-26T05:45:43;52.90;;;8.40;;
2838;SDS011;1427;48.510;9.060;2023-06-26T05:48:11;50.87;;;6.70;;
2838;SDS011;1427;48.510;9.060;2023-06-26T05:50:39;53.00;;;7.10;;
2838;SDS011;1427;48.510;9.060;2023-06-26T05:53:08;51.80;;;6.90;;
2838;SDS011;1427;48.510;9.060;2023-06-26T05:55:37;54.87;;;7.60;;
2838;SDS011;1427;48.510;9.060;2023-06-26T05:58:06;58.00;;;8.20;;
2838;SDS011;1427;48.510;9.060;2023-06-26T06:00:35;54.70;;;8.77;;
2838;SDS011;1427;48.510;9.060;2023-06-26T06:03:05;55.07;;;8.60;;
2838;SDS011;1427;48.510;9.060;2023-06-26T06:05:33;52.23;;;8.07;;
2838;SDS011;1427;48.510;9.060;2023-06-26T06:08:01;53.60;;;7.47;;
2838;SDS011;1427;48.510;9.060;2023-06-26T06:10:30;52.07;;;7.90;;
2838;SDS011;1427;48.510;9.060;2023-06-26T06:12:59;57.63;;;7.80;;
2838;SDS011;1427;48.510;9.060;2023-06-26T06:15:27;54.43;;;9.20;;
2838;SDS011;1427;48.510;9.060;2023-06-26T06:17:57;55.80;;;8.20;;
2838;SDS011;1427;48.510;9.060;2023-06-26T06:20:26;52.70;;;7.53;;
2838;SDS011;1427;48.510;9.060;2023-06-26T06:22:54;54.87;;;7.67;;
2838;SDS011;1427;48.510;9.060;2023-06-26T06:25:22;54.77;;;8.37;;
2838;SDS011;1427;48.510;9.060;2023-06-26T06:27:50;54.50;;;8.40;;
2838;SDS011;1427;48.510;9.060;2023-06-26T06:30:18;54.10;;;8.50;;
2838;SDS011;1427;48.510;9.060;2023-06-26T06:33:06;56.07;;;8.63;;
2838;SDS011;1427;48.510;9.060;2023-06-26T06:35:34;53.60;;;8.20;;
2838;SDS011;1427;48.510;9.060;2023-06-26T06:38:02;57.83;;;10.10;;
2838;SDS011;1427;48.510;9.060;2023-06-26T06:40:30;55.23;;;7.83;;
2838;SDS011;1427;48.510;9.060;2023-06-26T06:42:58;56.30;;;8.27;;
2838;SDS011;1427;48.510;9.060;2023-06-26T06:45:26;55.10;;;8.13;;
2838;SDS011;1427;48.510;9.060;2023-06-26T06:47:54;54.33;;;6.60;;
2838;SDS011;1427;48.510;9.060;2023-06-26T06:50:24;54.80;;;9.00;;
2838;SDS011;1427;48.510;9.060;2023-06-26T06:52:52;61.30;;;10.13;;
2838;SDS011;1427;48.510;9.060;2023-06-26T06:55:20;55.60;;;8.17;;
2838;SDS011;1427;48.510;9.060;2023-06-26T06:57:48;55.37;;;6.87;;
2838;SDS011;1427;48.510;9.060;2023-06-26T07:00:16;55.23;;;7.17;;
2838;SDS011;1427;48.510;9.060;2023-06-26T07:02:45;52.60;;;7.57;;
2838;SDS011;1427;48.510;9.060;2023-06-26T07:05:13;55.90;;;7.77;;
2838;SDS011;1427;48.510;9.060;2023-06-26T07:07:43;51.57;;;6.70;;
2838;SDS011;1427;48.510;9.060;2023-06-26T07:10:12;55.47;;;7.50;;
2838;SDS011;1427;48.510;9.060;2023-06-26T07:12:41;55.50;;;7.30;;
2838;SDS011;1427;48.510;9.060;2023-06-26T07:15:10;54.50;;;7.63;;
2838;SDS011;1427;48.510;9.060;2023-06-26T07:17:38;53.40;;;6.73;;
2838;SDS011;1427;48.510;9.060;2023-06-26T07:20:06;55.33;;;7.67;;
2838;SDS011;1427;48.510;9.060;2023-06-26T07:22:36;54.43;;;7.43;;
2838;SDS011;1427;48.510;9.060;2023-06-26T07:25:06;52.70;;;6.87;;
2838;SDS011;1427;48.510;9.060;2023-06-26T07:27:35;55.00;;;8.03;;
2838;SDS011;1427;48.510;9.060;2023-06-26T07:30:04;52.57;;;7.80;;
2838;SDS011;1427;48.510;9.060;2023-06-26T07:32:35;54.40;;;8.80;;
2838;SDS011;1427;48.510;9.060;2023-06-26T07:35:04;54.07;;;7.10;;
2838;SDS011;1427;48.510;9.060;2023-06-26T07:37:32;53.73;;;7.53;;
2838;SDS011;1427;48.510;9.060;2023-06-26T07:40:01;56.07;;;8.00;;
2838;SDS011;1427;48.510;9.060;2023-06-26T07:42:31;51.70;;;7.13;;
2838;SDS011;1427;48.510;9.060;2023-06-26T07:44:59;55.27;;;8.17;;
2838;SDS011;1427;48.510;9.060;2023-06-26T07:47:28;54.90;;;6.90;;
2838;SDS011;1427;48.510;9.060;2023-06-26T07:49:56;57.53;;;7.80;;
2838;SDS011;1427;48.510;9.060;2023-06-26T07:52:24;52.40;;;7.53;;
2838;SDS011;1427;48.510;9.060;2023-06-26T07:54:52;52.60;;;7.20;;
2838;SDS011;1427;48.510;9.060;2023-06-26T07:57:20;53.47;;;8.10;;
2838;SDS011;1427;48.510;9.060;2023-06-26T07:59:50;56.90;;;6.97;;
2838;SDS011;1427;48.510;9.060;2023-06-26T08:02:18;50.70;;;6.20;;
2838;SDS011;1427;48.510;9.060;2023-06-26T08:04:46;55.80;;;7.60;;
2838;SDS011;1427;48.510;9.060;2023-06-26T08:07:14;53.03;;;7.20;;
2838;SDS011;1427;48.510;9.060;2023-06-26T08:09:43;64.30;;;6.70;;
2838;SDS011;1427;48.510;9.060;2023-06-26T08:12:11;52.47;;;6.40;;
2838;SDS011;1427;48.510;9.060;2023-06-26T08:14:39;52.80;;;7.20;;
2838;SDS011;1427;48.510;9.060;2023-06-26T08:17:08;53.07;;;7.80;;
2838;SDS011;1427;48.510;9.060;2023-06-26T08:19:36;55.47;;;7.97;;
2838;SDS011;1427;48.510;9.060;2023-06-26T08:22:04;52.57;;;7.37;;
2838;SDS011;1427;48.510;9.060;2023-06-26T08:24:32;51.65;;;6.93;;
2838;SDS011;1427;48.510;9.060;2023-06-26T08:27:03;53.67;;;7.77;;
2838;SDS011;1427;48.510;9.060;2023-06-26T08:29:33;55.60;;;8.60;;
2838;SDS011;1427;48.510;9.060;2023-06-26T08:32:01;51.70;;;6.80;;
2838;SDS011;1427;48.510;9.060;2023-06-26T08:34:31;53.27;;;7.37;;
2838;SDS011;1427;48.510;9.060;2023-06-26T08:36:59;52.57;;;7.30;;
2838;SDS011;1427;48.510;9.060;2023-06-26T08:39:28;51.72;;;7.15;;
2838;SDS011;1427;48.510;9.060;2023-06-26T08:41:56;51.47;;;6.82;;
2838;SDS011;1427;48.510;9.060;2023-06-26T08:44:25;54.63;;;7.25;;
2838;SDS011;1427;48.510;9.060;2023-06-26T08:46:53;50.88;;;7.07;;
2838;SDS011;1427;48.510;9.060;2023-06-26T08:49:24;51.47;;;7.15;;
2838;SDS011;1427;48.510;9.060;2023-06-26T08:52:05;50.50;;;6.32;;
2838;SDS011;1427;48.510;9.060;2023-06-26T08:54:40;51.38;;;6.68;;
2838;SDS011;1427;48.510;9.060;2023-06-26T08:57:14;52.65;;;8.20;;
2838;SDS011;1427;48.510;9.060;2023-06-26T08:59:45;53.72;;;7.00;;
2838;SDS011;1427;48.510;9.060;2023-06-26T09:02:14;51.67;;;6.95;;
2838;SDS011;1427;48.510;9.060;2023-06-26T09:04:43;51.70;;;7.45;;
2838;SDS011;1427;48.510;9.060;2023-06-26T09:07:12;50.47;;;6.38;;
2838;SDS011;1427;48.510;9.060;2023-06-26T09:09:41;51.85;;;7.30;;
2838;SDS011;1427;48.510;9.060;2023-06-26T09:12:09;52.83;;;8.23;;
2838;SDS011;1427;48.510;9.060;2023-06-26T09:14:38;52.58;;;7.30;;
2838;SDS011;1427;48.510;9.060;2023-06-26T09:17:07;51.50;;;7.72;;
2838;SDS011;1427;48.510;9.060;2023-06-26T09:19:36;53.05;;;6.95;;
2838;SDS011;1427;48.510;9.060;2023-06-26T09:22:05;53.40;;;7.60;;
2838;SDS011;1427;48.510;9.060;2023-06-26T09:24:41;52.15;;;7.57;;
2838;SDS011;1427;48.510;9.060;2023-06-26T09:27:10;52.47;;;7.07;;
2838;SDS011;1427;48.510;9.060;2023-06-26T09:29:38;52.85;;;6.88;;
2838;SDS011;1427;48.510;9.060;2023-06-26T09:32:07;51.63;;;7.32;;
2838;SDS011;1427;48.510;9.060;2023-06-26T09:34:36;51.72;;;6.65;;
2838;SDS011;1427;48.510;9.060;2023-06-26T09:37:04;53.40;;;8.23;;
2838;SDS011;1427;48.510;9.060;2023-06-26T09:39:34;53.83;;;7.25;;
2838;SDS011;1427;48.510;9.060;2023-06-26T09:42:03;50.92;;;5.68;;
2838;SDS011;1427;48.510;9.060;2023-06-26T09:44:33;52.35;;;6.45;;
2838;SDS011;1427;48.510;9.060;2023-06-26T09:47:01;51.13;;;6.32;;
2838;SDS011;1427;48.510;9.060;2023-06-26T09:49:30;51.47;;;6.95;;
2838;SDS011;1427;48.510;9.060;2023-06-26T09:51:59;50.50;;;6.18;;
2838;SDS011;1427;48.510;9.060;2023-06-26T09:54:29;53.80;;;7.45;;
2838;SDS011;1427;48.510;9.060;2023-06-26T09:57:07;50.90;;;6.85;;
2838;SDS011;1427;48.510;9.060;2023-06-26T09:59:36;51.83;;;6.95;;
2838;SDS011;1427;48.510;9.060;2023-06-26T10:02:04;51.63;;;6.03;;
2838;SDS011;1427;48.510;9.060;2023-06-26T10:04:33;50.90;;;6.35;;
2838;SDS011;1427;48.510;9.060;2023-06-26T10:07:04;51.42;;;6.18;;
2838;SDS011;1427;48.510;9.060;2023-06-26T10:09:33;51.30;;;6.72;;
2838;SDS011;1427;48.510;9.060;2023-06-26T10:12:06;52.55;;;6.88;;
2838;SDS011;1427;48.510;9.060;2023-06-26T10:14:38;51.28;;;6.72;;
2838;SDS011;1427;48.510;9.060;2023-06-26T10:17:13;54.03;;;7.57;;
2838;SDS011;1427;48.510;9.060;2023-06-26T10:19:44;51.28;;;7.13;;
2838;SDS011;1427;48.510;9.060;2023-06-26T10:22:14;50.40;;;6.13;;
2838;SDS011;1427;48.510;9.060;2023-06-26T10:24:44;51.78;;;7.65;;
2838;SDS011;1427;48.510;9.060;2023-06-26T10:27:16;51.40;;;6.88;;
2838;SDS011;1427;48.510;9.060;2023-06-26T10:29:46;51.00;;;6.82;;
2838;SDS011;1427;48.510;9.060;2023-06-26T10:32:16;50.88;;;6.00;;
2838;SDS011;1427;48.510;9.060;2023-06-26T10:34:47;51.53;;;7.25;;
2838;SDS011;1427;48.510;9.060;2023-06-26T10:37:16;52.40;;;7.50;;
2838;SDS011;1427;48.510;9.060;2023-06-26T10:39:47;51.55;;;6.60;;
2838;SDS011;1427;48.510;9.060;2023-06-26T10:42:18;52.20;;;7.28;;
2838;SDS011;1427;48.510;9.060;2023-06-26T10:44:47;50.55;;;7.15;;
2838;SDS011;1427;48.510;9.060;2023-06-26T10:47:28;51.90;;;7.65;;
2838;SDS011;1427;48.510;9.060;2023-06-26T10:55:41;51.95;;;7.18;;
2838;SDS011;1427;48.510;9.060;2023-06-26T11:01:14;53.22;;;7.60;;
2838;SDS011;1427;48.510;9.060;2023-06-26T11:03:45;50.40;;;7.88;;
2838;SDS011;1427;48.510;9.060;2023-06-26T11:06:17;55.85;;;7.32;;
2838;SDS011;1427;48.510;9.060;2023-06-26T11:08:47;52.58;;;7.95;;
2838;SDS011;1427;48.510;9.060;2023-06-26T11:11:16;54.03;;;8.50;;
2838;SDS011;1427;48.510;9.060;2023-06-26T11:13:46;53.22;;;7.88;;
2838;SDS011;1427;48.510;9.060;2023-06-26T11:16:15;51.90;;;6.00;;
2838;SDS011;1427;48.510;9.060;2023-06-26T11:18:44;52.78;;;7.32;;
2838;SDS011;1427;48.510;9.060;2023-06-26T11:21:12;53.92;;;7.30;;
2838;SDS011;1427;48.510;9.060;2023-06-26T11:23:41;51.50;;;6.28;;
2838;SDS011;1427;48.510;9.060;2023-06-26T11:26:17;54.50;;;7.93;;
2838;SDS011;1427;48.510;9.060;2023-06-26T11:28:49;51.97;;;7.70;;
2838;SDS011;1427;48.510;9.060;2023-06-26T11:31:25;53.72;;;7.35;;
2838;SDS011;1427;48.510;9.060;2023-06-26T11:33:54;51.97;;;8.00;;
2838;SDS011;1427;48.510;9.060;2023-06-26T11:36:23;54.22;;;8.27;;
2838;SDS011;1427;48.510;9.060;2023-06-26T11:38:52;54.00;;;8.48;;
2838;SDS011;1427;48.510;9.060;2023-06-26T11:41:22;54.28;;;7.35;;
2838;SDS011;1427;48.510;9.060;2023-06-26T11:43:53;54.38;;;7.72;;
2838;SDS011;1427;48.510;9.060;2023-06-26T11:46:22;52.05;;;7.55;;
2838;SDS011;1427;48.510;9.060;2023-06-26T11:48:50;52.60;;;7.90;;
2838;SDS011;1427;48.510;9.060;2023-06-26T11:51:19;55.45;;;7.05;;
2838;SDS011;1427;48.510;9.060;2023-06-26T11:53:48;53.13;;;7.68;;
2838;SDS011;1427;48.510;9.060;2023-06-26T11:56:17;51.35;;;6.88;;
2838;SDS011;1427;48.510;9.060;2023-06-26T11:58:56;53.20;;;7.68;;
2838;SDS011;1427;48.510;9.060;2023-06-26T12:01:25;55.15;;;7.85;;
2838;SDS011;1427;48.510;9.060;2023-06-26T12:03:58;52.33;;;7.93;;
2838;SDS011;1427;48.510;9.060;2023-06-26T12:06:29;53.35;;;7.00;;
2838;SDS011;1427;48.510;9.060;2023-06-26T12:09:00;53.95;;;6.95;;
2838;SDS011;1427;48.510;9.060;2023-06-26T12:11:31;51.78;;;6.95;;
2838;SDS011;1427;48.510;9.060;2023-06-26T12:14:02;53.88;;;8.07;;
2838;SDS011;1427;48.510;9.060;2023-06-26T12:16:32;52.70;;;7.72;;
2838;SDS011;1427;48.510;9.060;2023-06-26T12:19:03;53.13;;;8.65;;
2838;SDS011;1427;48.510;9.060;2023-06-26T12:21:44;52.60;;;7.20;;
2838;SDS011;1427;48.510;9.060;2023-06-26T12:24:15;50.92;;;6.72;;
2838;SDS011;1427;48.510;9.060;2023-06-26T12:26:45;49.65;;;6.05;;
2838;SDS011;1427;48.510;9.060;2023-06-26T12:29:17;53.83;;;7.25;;
2838;SDS011;1427;48.510;9.060;2023-06-26T12:31:48;53.50;;;8.23;;
2838;SDS011;1427;48.510;9.060;2023-06-26T12:34:20;54.10;;;6.60;;
2838;SDS011;1427;48.510;9.060;2023-06-26T12:36:51;55.65;;;8.90;;
2838;SDS011;1427;48.510;9.060;2023-06-26T12:39:20;53.42;;;8.65;;
2838;SDS011;1427;48.510;9.060;2023-06-26T12:41:48;54.25;;;9.10;;
2838;SDS011;1427;48.510;9.060;2023-06-26T12:44:22;58.05;;;9.65;;
2838;SDS011;1427;48.510;9.060;2023-06-26T12:46:53;53.25;;;9.57;;
2838;SDS011;1427;48.510;9.060;2023-06-26T12:49:30;55.17;;;9.45;;
2838;SDS011;1427;48.510;9.060;2023-06-26T12:52:00;56.22;;;10.52;;
2838;SDS011;1427;48.510;9.060;2023-06-26T12:54:29;55.92;;;9.43;;
2838;SDS011;1427;48.510;9.060;2023-06-26T12:56:58;53.40;;;8.95;;
2838;SDS011;1427;48.510;9.060;2023-06-26T12:59:27;54.05;;;9.10;;
2838;SDS011;1427;48.510;9.060;2023-06-26T13:01:55;54.75;;;9.60;;
2838;SDS011;1427;48.510;9.060;2023-06-26T13:04:24;54.15;;;10.18;;
2838;SDS011;1427;48.510;9.060;2023-06-26T13:06:52;53.45;;;9.45;;
2838;SDS011;1427;48.510;9.060;2023-06-26T13:09:21;53.40;;;9.82;;
2838;SDS011;1427;48.510;9.060;2023-06-26T13:11:51;54.35;;;9.30;;
2838;SDS011;1427;48.510;9.060;2023-06-26T13:14:20;55.35;;;9.52;;
2838;SDS011;1427;48.510;9.060;2023-06-26T13:16:49;52.50;;;8.35;;
2838;SDS011;1427;48.510;9.060;2023-06-26T13:19:17;52.50;;;9.32;;
2838;SDS011;1427;48.510;9.060;2023-06-26T13:21:46;56.45;;;9.60;;
2838;SDS011;1427;48.510;9.060;2023-06-26T13:24:14;53.95;;;9.43;;
2838;SDS011;1427;48.510;9.060;2023-06-26T13:26:42;53.30;;;8.60;;
2838;SDS011;1427;48.510;9.060;2023-06-26T13:29:10;53.05;;;9.07;;
2838;SDS011;1427;48.510;9.060;2023-06-26T13:31:38;53.47;;;9.35;;
2838;SDS011;1427;48.510;9.060;2023-06-26T13:34:08;53.47;;;8.50;;
2838;SDS011;1427;48.510;9.060;2023-06-26T13:36:36;52.33;;;9.63;;
2838;SDS011;1427;48.510;9.060;2023-06-26T13:39:04;53.97;;;8.70;;
2838;SDS011;1427;48.510;9.060;2023-06-26T13:41:32;54.47;;;10.02;;
2838;SDS011;1427;48.510;9.060;2023-06-26T13:44:00;55.00;;;8.27;;
2838;SDS011;1427;48.510;9.060;2023-06-26T13:46:41;54.08;;;7.78;;
2838;SDS011;1427;48.510;9.060;2023-06-26T13:49:10;54.92;;;9.50;;
2838;SDS011;1427;48.510;9.060;2023-06-26T13:51:39;53.33;;;9.98;;
2838;SDS011;1427;48.510;9.060;2023-06-26T13:54:12;56.38;;;8.57;;
2838;SDS011;1427;48.510;9.060;2023-06-26T13:56:40;53.67;;;8.82;;
2838;SDS011;1427;48.510;9.060;2023-06-26T13:59:08;53.08;;;8.50;;
2838;SDS011;1427;48.510;9.060;2023-06-26T14:01:39;52.65;;;8.05;;
2838;SDS011;1427;48.510;9.060;2023-06-26T14:04:10;53.28;;;9.75;;
2838;SDS011;1427;48.510;9.060;2023-06-26T14:06:38;54.20;;;9.35;;
2838;SDS011;1427;48.510;9.060;2023-06-26T14:09:06;55.10;;;9.63;;
2838;SDS011;1427;48.510;9.060;2023-06-26T14:11:34;52.65;;;9.27;;
2838;SDS011;1427;48.510;9.060;2023-06-26T14:14:03;53.53;;;9.32;;
2838;SDS011;1427;48.510;9.060;2023-06-26T14:16:31;55.17;;;9.95;;
2838;SDS011;1427;48.510;9.060;2023-06-26T14:18:59;53.78;;;9.32;;
2838;SDS011;1427;48.510;9.060;2023-06-26T14:21:30;54.90;;;9.50;;
2838;SDS011;1427;48.510;9.060;2023-06-26T14:23:59;52.70;;;8.55;;
2838;SDS011;1427;48.510;9.060;2023-06-26T14:26:28;54.13;;;9.02;;
2838;SDS011;1427;48.510;9.060;2023-06-26T14:28:58;52.95;;;8.50;;
2838;SDS011;1427;48.510;9.060;2023-06-26T14:31:26;54.13;;;7.57;;
2838;SDS011;1427;48.510;9.060;2023-06-26T14:33:54;55.58;;;8.20;;
2838;SDS011;1427;48.510;9.060;2023-06-26T14:36:23;55.20;;;10.25;;
2838;SDS011;1427;48.510;9.060;2023-06-26T14:38:52;52.40;;;8.32;;
2838;SDS011;1427;48.510;9.060;2023-06-26T14:41:21;56.22;;;8.38;;
2838;SDS011;1427;48.510;9.060;2023-06-26T14:43:51;51.08;;;7.57;;
2838;SDS011;1427;48.510;9.060;2023-06-26T14:46:20;51.80;;;8.25;;
2838;SDS011;1427;48.510;9.060;2023-06-26T14:48:49;53.97;;;8.05;;
2838;SDS011;1427;48.510;9.060;2023-06-26T14:51:17;53.50;;;9.38;;
2838;SDS011;1427;48.510;9.060;2023-06-26T14:53:46;53.45;;;8.63;;
2838;SDS011;1427;48.510;9.060;2023-06-26T14:56:15;56.60;;;8.82;;
2838;SDS011;1427;48.510;9.060;2023-06-26T14:58:44;54.75;;;9.73;;
2838;SDS011;1427;48.510;9.060;2023-06-26T15:01:13;52.88;;;8.18;;
2838;SDS011;1427;48.510;9.060;2023-06-26T15:03:42;53.83;;;9.70;;
2838;SDS011;1427;48.510;9.060;2023-06-26T15:06:10;50.70;;;7.43;;
2838;SDS011;1427;48.510;9.060;2023-06-26T15:08:38;51.97;;;7.65;;
2838;SDS011;1427;48.510;9.060;2023-06-26T15:11:06;52.67;;;9.43;;
2838;SDS011;1427;48.510;9.060;2023-06-26T15:13:36;54.35;;;7.97;;
2838;SDS011;1427;48.510;9.060;2023-06-26T15:16:04;55.28;;;9.35;;
2838;SDS011;1427;48.510;9.060;2023-06-26T15:18:32;51.08;;;8.05;;
2838;SDS011;1427;48.510;9.060;2023-06-26T15:21:00;52.43;;;8.17;;